Time;durP1;ratioP1;P1;durP2;ratioP2;P2;SDS_P1;SDS_P2;PMS_P1;PMS_P2;Temp;Humidity;BMP_temperature;BMP_pressure;BME280_temperature;BME280_humidity;BME280_pressure;Samples;Min_cycle;Max_cycle;Signal;HPM_P1;HPM_P2
2023/04/28 00:01:41;;;;;;;9.40;4.13;;;11.60;56.80;;;;;;5072471;28;20025;-84
2023/04/28 00:04:07;;;;;;;8.20;3.30;;;11.50;56.90;;;;;;5071193;28;20427;-76
2023/04/28 00:06:33;;;;;;;6.40;3.27;;;11.50;57.00;;;;;;5072709;28;20381;-77
2023/04/28 00:08:59;;;;;;;7.13;3.33;;;11.50;56.90;;;;;;5071355;28;20029;-84
2023/04/28 00:11:24;;;;;;;7.83;4.20;;;11.50;57.00;;;;;;5072428;28;20052;-76
2023/04/28 00:13:50;;;;;;;8.73;3.63;;;11.50;57.00;;;;;;5072638;28;20028;-85
2023/04/28 00:16:16;;;;;;;6.10;3.37;;;11.50;57.10;;;;;;5071107;28;20032;-76
2023/04/28 00:18:42;;;;;;;9.27;3.97;;;11.50;57.10;;;;;;5072481;28;20079;-86
2023/04/28 00:21:07;;;;;;;6.67;3.70;;;11.40;57.20;;;;;;5055715;28;20024;-86
2023/04/28 00:23:34;;;;;;;6.00;3.47;;;11.40;57.10;;;;;;5074990;28;20029;-76
2023/04/28 00:26:00;;;;;;;6.27;2.93;;;11.40;57.10;;;;;;5076144;28;20051;-84
2023/04/28 00:28:25;;;;;;;7.43;3.37;;;11.40;57.10;;;;;;5074777;28;20481;-78
2023/04/28 00:30:51;;;;;;;7.23;3.60;;;11.30;57.10;;;;;;5075924;28;20028;-76
2023/04/28 00:33:17;;;;;;;7.20;3.73;;;11.30;57.20;;;;;;5075915;28;20032;-75
2023/04/28 00:35:42;;;;;;;8.40;3.07;;;11.30;57.40;;;;;;5075798;28;20028;-76
2023/04/28 00:38:08;;;;;;;5.87;3.30;;;11.30;58.10;;;;;;5075954;28;20058;-75
2023/04/28 00:40:35;;;;;;;8.40;3.77;;;11.30;57.60;;;;;;5075778;28;20103;-85
2023/04/28 00:43:01;;;;;;;6.43;2.97;;;11.30;57.80;;;;;;5075898;28;20051;-84
2023/04/28 00:45:27;;;;;;;7.30;2.97;;;11.30;57.80;;;;;;5075721;28;20024;-85
2023/04/28 00:47:54;;;;;;;5.43;2.90;;;11.30;57.80;;;;;;5075681;28;20089;-84
2023/04/28 00:50:21;;;;;;;6.63;2.93;;;11.30;57.80;;;;;;5074349;28;20108;-85
2023/04/28 00:52:47;;;;;;;8.33;3.37;;;11.20;57.80;;;;;;5075674;28;20031;-85
2023/04/28 00:55:15;;;;;;;6.37;3.33;;;11.30;58.00;;;;;;5074097;28;20025;-85
2023/04/28 00:57:41;;;;;;;6.27;2.73;;;11.20;57.90;;;;;;5075362;28;20025;-85
2023/04/28 01:00:07;;;;;;;7.43;3.30;;;11.20;58.00;;;;;;5075332;28;20096;-86
2023/04/28 01:02:34;;;;;;;7.10;3.30;;;11.20;58.20;;;;;;5073962;28;20508;-85
2023/04/28 01:05:01;;;;;;;5.87;2.50;;;11.20;58.20;;;;;;5074033;28;20025;-85
2023/04/28 01:07:27;;;;;;;9.07;3.57;;;11.20;58.30;;;;;;5073927;28;20082;-85
2023/04/28 01:09:53;;;;;;;6.67;3.50;;;11.20;58.60;;;;;;5074097;28;20431;-85
2023/04/28 01:12:19;;;;;;;7.13;3.20;;;11.20;58.70;;;;;;5056996;28;20025;-85
2023/04/28 01:14:45;;;;;;;6.80;3.30;;;11.20;58.80;;;;;;5074411;28;20039;-85
2023/04/28 01:17:11;;;;;;;7.53;3.67;;;11.10;58.90;;;;;;5056044;28;20025;-85
2023/04/28 01:19:36;;;;;;;8.03;3.60;;;11.10;59.10;;;;;;5057419;28;20021;-86
2023/04/28 01:22:03;;;;;;;8.10;3.20;;;11.10;59.50;;;;;;5073952;28;20025;-86
2023/04/28 01:24:29;;;;;;;7.73;3.00;;;11.10;59.90;;;;;;5057656;28;20078;-87
2023/04/28 01:26:55;;;;;;;10.50;3.63;;;11.00;60.10;;;;;;5075292;28;20032;-86
2023/04/28 01:29:20;;;;;;;8.90;3.60;;;11.10;60.60;;;;;;5074181;28;20507;-87
2023/04/28 01:31:46;;;;;;;8.83;3.47;;;11.00;61.10;;;;;;5073895;28;20021;-85
2023/04/28 01:34:12;;;;;;;7.27;3.13;;;11.00;61.80;;;;;;5073372;28;20027;-87
2023/04/28 01:36:37;;;;;;;8.37;2.87;;;11.00;62.00;;;;;;5057192;28;20032;-87
2023/04/28 01:39:03;;;;;;;6.47;3.13;;;11.00;62.40;;;;;;5074028;28;20024;-86
2023/04/28 01:41:29;;;;;;;9.37;3.37;;;11.00;62.60;;;;;;5075182;28;20158;-87
2023/04/28 01:43:55;;;;;;;7.27;3.63;;;10.90;62.80;;;;;;5073728;28;20059;-86
2023/04/28 01:46:20;;;;;;;4.87;2.70;;;10.90;63.00;;;;;;5074891;28;20058;-86
2023/04/28 01:48:46;;;;;;;9.00;3.43;;;10.90;63.20;;;;;;5057021;28;20020;-87
2023/04/28 01:51:12;;;;;;;8.93;3.57;;;10.80;63.30;;;;;;5073574;28;20020;-88
2023/04/28 01:53:38;;;;;;;6.60;3.37;;;10.80;64.10;;;;;;5074784;28;20032;-87
2023/04/28 01:56:03;;;;;;;6.07;3.77;;;10.70;64.30;;;;;;5073288;28;20050;-86
2023/04/28 01:58:29;;;;;;;8.10;4.20;;;10.80;64.20;;;;;;5073423;28;20039;-87
2023/04/28 02:00:55;;;;;;;8.33;3.97;;;10.80;64.60;;;;;;5056735;28;20029;-86
2023/04/28 02:03:20;;;;;;;6.03;3.20;;;10.80;64.50;;;;;;5056640;28;20029;-87
2023/04/28 02:05:46;;;;;;;5.33;3.17;;;10.70;64.70;;;;;;5056556;28;20122;-87
2023/04/28 02:08:12;;;;;;;7.10;3.67;;;10.70;64.80;;;;;;5073489;28;20029;-87
2023/04/28 02:10:37;;;;;;;7.00;3.70;;;10.80;64.90;;;;;;5056452;28;20028;-87
2023/04/28 02:13:03;;;;;;;5.30;2.97;;;10.80;65.00;;;;;;5056337;28;20074;-86
2023/04/28 02:15:29;;;;;;;4.73;2.77;;;10.70;64.90;;;;;;5056262;28;20495;-87
2023/04/28 02:17:55;;;;;;;7.80;3.80;;;10.70;65.00;;;;;;5072980;28;20082;-88
2023/04/28 02:20:20;;;;;;;6.43;3.03;;;10.70;65.20;;;;;;5056129;28;20514;-87
2023/04/28 02:22:46;;;;;;;9.33;3.87;;;10.70;65.30;;;;;;5056142;28;20024;-87
2023/04/28 02:25:12;;;;;;;6.33;3.00;;;10.70;65.40;;;;;;5056138;28;20056;-88
2023/04/28 02:27:37;;;;;;;8.40;3.47;;;10.70;65.60;;;;;;5056263;28;20405;-88
2023/04/28 02:30:05;;;;;;;5.23;2.90;;;10.60;65.60;;;;;;5072813;28;20514;-87
2023/04/28 02:32:31;;;;;;;7.77;3.87;;;10.70;65.90;;;;;;5072621;28;20458;-87
2023/04/28 02:34:56;;;;;;;7.27;3.43;;;10.70;65.70;;;;;;5072571;28;20028;-87
2023/04/28 02:37:22;;;;;;;7.00;3.47;;;10.60;65.80;;;;;;5073908;28;20033;-87
2023/04/28 02:39:48;;;;;;;7.13;4.00;;;10.60;66.60;;;;;;5072566;28;20032;-87
2023/04/28 02:42:13;;;;;;;8.17;3.77;;;10.70;66.00;;;;;;5072492;28;20028;-87
2023/04/28 02:44:39;;;;;;;6.53;3.97;;;10.60;66.00;;;;;;5071860;28;20112;-87
2023/04/28 02:47:05;;;;;;;8.33;3.67;;;10.60;66.40;;;;;;5056136;28;20119;-85
2023/04/28 02:49:30;;;;;;;8.00;3.93;;;10.60;66.90;;;;;;5072541;28;20037;-87
2023/04/28 02:51:56;;;;;;;7.50;3.80;;;10.60;66.40;;;;;;5072837;28;20028;-87
2023/04/28 02:54:27;;;;;;;6.40;3.63;;;10.60;66.30;;;;;;5073473;28;20032;-86
2023/04/28 02:56:57;;;;;;;7.33;4.03;;;10.60;66.30;;;;;;5056293;28;20434;-87
2023/04/28 02:59:23;;;;;;;8.70;3.67;;;10.50;66.40;;;;;;5073508;28;20021;-87
2023/04/28 03:01:50;;;;;;;9.13;3.77;;;10.50;66.40;;;;;;5072270;28;20028;-87
2023/04/28 03:04:16;;;;;;;8.43;4.10;;;10.50;66.80;;;;;;5073520;28;20021;-88
2023/04/28 03:06:42;;;;;;;7.43;3.77;;;10.50;66.60;;;;;;5072260;28;20036;-87
2023/04/28 03:09:08;;;;;;;7.83;3.93;;;10.50;66.70;;;;;;5072260;28;20020;-87
2023/04/28 03:11:34;;;;;;;8.50;4.17;;;10.50;66.70;;;;;;5055434;28;20067;-88
2023/04/28 03:14:00;;;;;;;6.20;3.47;;;10.50;66.60;;;;;;5072276;28;20028;-87
2023/04/28 03:16:25;;;;;;;6.23;3.70;;;10.50;66.80;;;;;;5071946;28;20120;-88
2023/04/28 03:18:51;;;;;;;6.43;3.10;;;10.50;66.90;;;;;;5073289;28;20325;-87
2023/04/28 03:21:16;;;;;;;7.50;3.83;;;10.50;66.90;;;;;;5073259;28;20431;-87
2023/04/28 03:23:42;;;;;;;7.50;3.90;;;10.50;67.10;;;;;;5071820;28;20037;-88
2023/04/28 03:26:08;;;;;;;7.43;3.83;;;10.50;66.90;;;;;;5073368;28;20055;-88
2023/04/28 03:28:33;;;;;;;5.63;3.50;;;10.50;66.90;;;;;;5072108;28;20065;-87
2023/04/28 03:30:59;;;;;;;6.70;3.83;;;10.50;66.90;;;;;;5071922;28;20393;-88
2023/04/28 03:33:25;;;;;;;7.70;3.80;;;10.50;67.10;;;;;;5072024;28;20040;-87
2023/04/28 03:35:52;;;;;;;6.90;2.80;;;10.50;67.10;;;;;;5071941;28;20032;-88
2023/04/28 03:38:17;;;;;;;8.47;4.67;;;10.50;67.10;;;;;;5073203;28;20044;-87
2023/04/28 03:40:43;;;;;;;9.20;4.63;;;10.50;67.50;;;;;;5073133;28;20090;-88
2023/04/28 03:43:09;;;;;;;10.37;4.70;;;10.40;67.40;;;;;;5071909;28;20028;-88
2023/04/28 03:45:35;;;;;;;7.97;3.77;;;10.50;67.50;;;;;;5073104;28;20033;-87
2023/04/28 03:48:00;;;;;;;10.70;4.43;;;10.50;67.60;;;;;;5055223;28;20063;-88
2023/04/28 03:50:26;;;;;;;8.10;4.60;;;10.50;67.50;;;;;;5071840;28;20024;-88
2023/04/28 03:52:51;;;;;;;8.60;5.07;;;10.50;67.70;;;;;;5071674;28;20028;-87
2023/04/28 03:55:17;;;;;;;8.20;4.87;;;10.50;67.60;;;;;;5071751;28;20469;-88
2023/04/28 03:57:43;;;;;;;8.20;4.50;;;10.50;67.70;;;;;;5075276;28;20044;-86
2023/04/28 04:00:09;;;;;;;11.47;4.93;;;10.50;67.80;;;;;;5077007;28;20025;-85
2023/04/28 04:02:35;;;;;;;10.07;4.63;;;10.50;67.80;;;;;;5058884;28;20110;-88
2023/04/28 04:05:01;;;;;;;8.00;4.00;;;10.50;68.10;;;;;;5075857;28;20032;-87
2023/04/28 04:07:26;;;;;;;9.60;4.83;;;10.50;68.00;;;;;;5075805;28;20028;-87
2023/04/28 04:09:52;;;;;;;9.60;4.80;;;10.50;68.00;;;;;;5058867;28;20028;-87
2023/04/28 04:12:18;;;;;;;9.03;4.30;;;10.50;68.10;;;;;;5067112;28;20082;-87
2023/04/28 04:14:43;;;;;;;8.60;4.50;;;10.60;68.20;;;;;;5073558;28;20151;-87
2023/04/28 04:17:09;;;;;;;9.00;4.80;;;10.60;68.20;;;;;;5073402;28;20035;-87
2023/04/28 04:19:35;;;;;;;9.63;4.77;;;10.60;68.30;;;;;;5073712;28;20028;-87
2023/04/28 04:22:00;;;;;;;10.37;4.20;;;10.50;68.60;;;;;;5075346;28;20037;-77
2023/04/28 04:24:26;;;;;;;9.47;4.67;;;10.50;68.50;;;;;;5075408;28;20044;-77
2023/04/28 04:26:51;;;;;;;10.00;4.10;;;10.60;68.60;;;;;;5075524;28;20124;-77
2023/04/28 04:29:17;;;;;;;7.67;4.37;;;10.60;68.50;;;;;;5057394;28;20063;-77
2023/04/28 04:31:44;;;;;;;7.00;4.50;;;10.60;68.60;;;;;;5075907;28;20074;-77
2023/04/28 04:34:10;;;;;;;9.27;4.27;;;10.60;68.90;;;;;;5075817;28;20013;-77
2023/04/28 04:36:36;;;;;;;8.77;4.40;;;10.60;68.90;;;;;;5057878;28;20055;-77
2023/04/28 04:39:01;;;;;;;9.37;5.03;;;10.60;69.10;;;;;;5075682;28;20052;-76
2023/04/28 04:41:27;;;;;;;11.07;6.10;;;10.60;69.10;;;;;;5075752;28;20540;-77
2023/04/28 04:43:53;;;;;;;9.20;5.00;;;10.60;69.30;;;;;;5074423;28;20025;-77
2023/04/28 04:46:18;;;;;;;10.37;5.07;;;10.60;69.40;;;;;;5074618;28;20042;-87
2023/04/28 04:48:44;;;;;;;10.30;5.63;;;10.60;69.60;;;;;;5074790;28;20056;-85
2023/04/28 04:51:10;;;;;;;8.63;5.47;;;10.60;69.80;;;;;;5075850;28;20032;-86
2023/04/28 04:53:36;;;;;;;11.67;5.47;;;10.60;70.30;;;;;;5074441;28;20043;-85
2023/04/28 04:56:02;;;;;;;11.27;6.20;;;10.60;69.90;;;;;;5075580;28;20078;-86
2023/04/28 04:58:28;;;;;;;17.07;6.40;;;10.60;70.10;;;;;;5074515;28;20020;-88
2023/04/28 05:00:53;;;;;;;11.10;5.93;;;10.60;70.20;;;;;;5057682;28;20511;-88
2023/04/28 05:03:19;;;;;;;11.47;5.60;;;10.60;70.50;;;;;;5057749;28;20020;-86
2023/04/28 05:05:45;;;;;;;10.73;6.40;;;10.60;70.60;;;;;;5075627;28;20051;-87
2023/04/28 05:08:11;;;;;;;9.60;5.90;;;10.60;71.00;;;;;;5073395;28;20068;-88
2023/04/28 05:10:37;;;;;;;9.73;5.47;;;10.70;71.10;;;;;;5074120;28;20025;-89
2023/04/28 05:13:03;;;;;;;11.50;6.57;;;10.70;71.10;;;;;;5074150;28;20032;-87
2023/04/28 05:15:29;;;;;;;10.03;6.17;;;10.70;71.40;;;;;;5057427;28;20032;-87
2023/04/28 05:17:55;;;;;;;12.20;6.37;;;10.70;71.60;;;;;;5057339;28;20035;-88
2023/04/28 05:20:21;;;;;;;14.57;6.90;;;10.70;71.80;;;;;;5073941;28;20032;-87
2023/04/28 05:22:49;;;;;;;13.23;7.13;;;10.70;72.20;;;;;;5075120;28;20040;-88
2023/04/28 05:25:15;;;;;;;9.43;5.87;;;10.80;72.10;;;;;;5070478;28;20393;-87
2023/04/28 05:27:40;;;;;;;12.00;6.80;;;10.80;72.20;;;;;;5061861;28;20085;-87
2023/04/28 05:30:07;;;;;;;15.23;7.40;;;10.70;72.70;;;;;;5072621;28;20029;-87
2023/04/28 05:32:34;;;;;;;11.43;6.30;;;10.80;72.80;;;;;;5073728;28;20115;-88
2023/04/28 05:35:00;;;;;;;11.67;6.53;;;10.80;73.00;;;;;;5069908;28;20060;-88
2023/04/28 05:37:26;;;;;;;11.83;6.90;;;10.80;72.90;;;;;;5053231;28;20476;-88
2023/04/28 05:39:52;;;;;;;11.47;7.37;;;10.80;73.30;;;;;;5068546;28;20116;-87
2023/04/28 05:42:17;;;;;;;11.63;7.07;;;10.80;73.20;;;;;;5037037;28;20060;-87
2023/04/28 05:44:43;;;;;;;12.37;7.17;;;10.80;73.20;;;;;;5054734;28;20116;-85
2023/04/28 05:47:09;;;;;;;15.30;7.57;;;10.80;73.40;;;;;;5066660;28;20041;-85
2023/04/28 05:49:34;;;;;;;14.87;8.80;;;10.80;74.00;;;;;;5053576;28;20060;-87
2023/04/28 05:52:00;;;;;;;14.10;7.83;;;10.90;74.30;;;;;;5070106;28;20446;-86
2023/04/28 05:54:25;;;;;;;15.50;7.93;;;10.90;74.40;;;;;;5054255;28;20072;-85
2023/04/28 05:56:52;;;;;;;13.50;8.33;;;10.90;74.50;;;;;;5086504;28;20059;-86
2023/04/28 05:59:18;;;;;;;13.40;7.60;;;10.90;75.20;;;;;;5067387;28;20020;-88
2023/04/28 06:01:44;;;;;;;16.40;8.13;;;10.90;75.10;;;;;;5071285;28;20017;-85
2023/04/28 06:04:09;;;;;;;13.20;8.20;;;10.90;75.30;;;;;;5067356;28;20036;-87
2023/04/28 06:06:35;;;;;;;17.17;10.07;;;11.00;76.10;;;;;;5054892;28;20101;-85
2023/04/28 06:09:02;;;;;;;16.23;8.90;;;11.00;76.40;;;;;;5034878;28;20029;-84
2023/04/28 06:11:27;;;;;;;16.27;9.18;;;11.00;76.70;;;;;;5051870;28;20179;-85
2023/04/28 06:13:53;;;;;;;13.43;8.83;;;11.00;76.90;;;;;;5035313;28;20215;-85
2023/04/28 06:16:19;;;;;;;17.80;10.03;;;11.00;77.50;;;;;;5064175;28;20044;-85
2023/04/28 06:18:45;;;;;;;14.37;9.27;;;11.00;77.70;;;;;;5037654;28;21021;-86
2023/04/28 06:21:10;;;;;;;14.60;9.90;;;11.10;78.70;;;;;;5068418;28;20162;-84
2023/04/28 06:23:37;;;;;;;14.05;9.70;;;11.10;79.80;;;;;;5073057;28;20674;-85
2023/04/28 06:26:03;;;;;;;18.90;11.02;;;11.10;81.10;;;;;;5073480;28;20064;-85
2023/04/28 06:28:29;;;;;;;15.50;10.70;;;11.10;81.60;;;;;;5072722;28;20115;-85
2023/04/28 06:30:54;;;;;;;16.38;10.13;;;11.20;81.40;;;;;;5072815;28;20033;-85
2023/04/28 06:33:20;;;;;;;18.53;10.10;;;11.10;81.50;;;;;;5072433;28;20425;-86
2023/04/28 06:35:46;;;;;;;17.97;10.30;;;11.20;81.80;;;;;;5072474;28;20552;-85
2023/04/28 06:38:11;;;;;;;15.27;10.07;;;11.20;82.00;;;;;;5073725;28;20115;-85
2023/04/28 06:40:39;;;;;;;15.27;10.33;;;11.20;82.20;;;;;;5072216;28;20090;-84
2023/04/28 06:43:05;;;;;;;17.50;10.60;;;11.30;82.80;;;;;;5071782;28;20535;-85
2023/04/28 06:45:30;;;;;;;17.63;9.80;;;11.40;83.00;;;;;;5071573;28;20121;-85
2023/04/28 06:47:56;;;;;;;15.03;10.40;;;11.40;83.20;;;;;;5073266;28;20032;-85
2023/04/28 06:50:22;;;;;;;15.83;9.27;;;11.50;84.30;;;;;;5072409;28;20074;-85
2023/04/28 06:52:48;;;;;;;15.90;10.63;;;11.60;84.10;;;;;;5073458;28;20495;-85
2023/04/28 06:55:16;;;;;;;19.25;11.55;;;11.70;84.80;;;;;;5072102;28;20119;-86
2023/04/28 06:57:42;;;;;;;15.93;9.60;;;11.80;85.40;;;;;;5069840;28;20024;-85
2023/04/28 07:00:08;;;;;;;21.02;10.98;;;11.90;85.90;;;;;;5054968;28;20082;-85
2023/04/28 07:02:35;;;;;;;18.65;11.57;;;12.00;86.30;;;;;;5073221;28;20060;-85
2023/04/28 07:05:02;;;;;;;18.50;10.98;;;12.10;86.50;;;;;;5071698;28;20123;-85
2023/04/28 07:07:28;;;;;;;17.13;11.43;;;12.20;87.10;;;;;;5054564;28;20040;-85
2023/04/28 07:09:54;;;;;;;15.98;10.43;;;12.30;87.40;;;;;;5070951;28;20116;-86
2023/04/28 07:12:20;;;;;;;15.98;10.63;;;12.40;87.70;;;;;;5055143;28;20054;-85
2023/04/28 07:14:46;;;;;;;19.92;11.52;;;12.50;87.70;;;;;;5069669;28;20183;-86
2023/04/28 07:17:12;;;;;;;15.98;9.95;;;12.50;88.30;;;;;;5069667;28;20111;-86
2023/04/28 07:19:37;;;;;;;17.95;11.85;;;12.50;88.40;;;;;;5072848;28;20033;-86
2023/04/28 07:22:03;;;;;;;17.42;11.60;;;12.60;88.80;;;;;;5072724;28;20035;-86
2023/04/28 07:24:29;;;;;;;21.10;11.32;;;12.60;89.30;;;;;;5072341;28;20040;-87
2023/04/28 07:26:56;;;;;;;17.75;10.93;;;12.70;89.50;;;;;;5068596;28;20366;-86
2023/04/28 07:29:22;;;;;;;16.77;11.55;;;12.70;90.00;;;;;;5072787;28;20488;-87
2023/04/28 07:31:47;;;;;;;17.42;11.98;;;12.70;90.20;;;;;;5070746;28;20025;-86
2023/04/28 07:34:13;;;;;;;20.02;12.10;;;12.80;90.40;;;;;;5073086;28;20020;-86
2023/04/28 07:36:40;;;;;;;18.63;12.07;;;12.80;90.60;;;;;;5073005;28;20111;-86
2023/04/28 07:39:06;;;;;;;21.75;12.15;;;12.90;90.70;;;;;;5073024;28;20082;-85
2023/04/28 07:41:37;;;;;;;19.33;11.73;;;12.90;90.90;;;;;;5072359;28;20028;-86
2023/04/28 07:44:04;;;;;;;18.92;12.57;;;13.00;90.90;;;;;;5071148;28;20058;-86
2023/04/28 07:46:30;;;;;;;21.20;12.32;;;13.10;91.10;;;;;;5060523;28;20032;-86
2023/04/28 07:48:55;;;;;;;20.02;10.85;;;13.10;91.20;;;;;;5071549;28;20028;-87
2023/04/28 07:51:21;;;;;;;14.80;10.52;;;13.20;91.10;;;;;;5054965;28;20074;-87
2023/04/28 07:53:47;;;;;;;17.30;10.48;;;13.30;91.20;;;;;;5071645;28;20056;-87
2023/04/28 07:56:12;;;;;;;17.90;11.02;;;13.30;91.10;;;;;;5071742;28;20068;-86
2023/04/28 07:58:38;;;;;;;16.42;10.70;;;13.30;91.30;;;;;;5070619;28;20025;-86
2023/04/28 08:01:04;;;;;;;17.85;10.77;;;13.40;91.20;;;;;;5070890;28;20103;-87
2023/04/28 08:03:30;;;;;;;15.93;10.90;;;13.40;91.40;;;;;;5070831;28;20033;-87
2023/04/28 08:05:55;;;;;;;16.88;10.75;;;13.40;91.40;;;;;;5070566;28;20048;-87
2023/04/28 08:08:21;;;;;;;15.25;10.82;;;13.40;91.40;;;;;;5053166;28;20036;-87
2023/04/28 08:10:47;;;;;;;19.55;11.77;;;13.50;91.50;;;;;;5034004;28;20033;-86
2023/04/28 08:13:12;;;;;;;18.40;10.73;;;13.40;91.60;;;;;;5069130;28;20028;-87
2023/04/28 08:15:38;;;;;;;20.00;10.82;;;13.50;91.60;;;;;;5069705;28;20070;-87
2023/04/28 08:18:04;;;;;;;17.08;11.23;;;13.50;91.60;;;;;;5070990;28;20035;-86
2023/04/28 08:20:31;;;;;;;18.60;11.02;;;13.50;91.60;;;;;;5068041;28;20040;-86
2023/04/28 08:22:57;;;;;;;18.23;10.95;;;13.50;91.80;;;;;;5071457;28;20384;-86
2023/04/28 08:25:23;;;;;;;15.98;11.00;;;13.60;91.90;;;;;;5071238;28;20044;-85
2023/04/28 08:27:48;;;;;;;15.63;11.52;;;13.70;92.20;;;;;;5072188;28;20039;-85
2023/04/28 08:30:14;;;;;;;18.15;9.77;;;13.80;92.40;;;;;;5070538;28;20070;-86
2023/04/28 08:32:40;;;;;;;16.52;9.95;;;13.90;92.40;;;;;;5069335;28;20028;-86
2023/04/28 08:35:06;;;;;;;18.42;10.98;;;14.00;92.50;;;;;;5068771;28;20115;-86
2023/04/28 08:37:33;;;;;;;15.60;10.82;;;14.20;92.80;;;;;;5070138;28;20032;-86
2023/04/28 08:40:03;;;;;;;16.95;10.10;;;14.20;92.60;;;;;;5054431;28;20039;-86
2023/04/28 08:42:32;;;;;;;20.33;11.23;;;14.30;92.60;;;;;;5070839;28;20043;-86
2023/04/28 08:44:58;;;;;;;16.35;10.73;;;14.30;92.70;;;;;;5075490;28;20075;-86
2023/04/28 08:47:35;;;;;;;18.15;11.55;;;14.40;92.70;;;;;;5057550;28;20604;-86
2023/04/28 08:50:05;;;;;;;16.88;10.60;;;14.40;92.70;;;;;;5075635;28;20036;-85
2023/04/28 08:52:31;;;;;;;16.92;9.77;;;14.40;92.70;;;;;;5057804;28;20060;-86
2023/04/28 08:55:19;;;;;;;15.95;9.48;;;14.50;92.70;;;;;;5075704;28;20029;-86
2023/04/28 08:57:49;;;;;;;14.95;9.00;;;14.50;92.70;;;;;;5073684;28;20025;-86
2023/04/28 09:00:15;;;;;;;14.55;9.50;;;14.50;92.80;;;;;;5074403;28;20036;-86
2023/04/28 09:02:41;;;;;;;13.27;8.70;;;14.40;92.70;;;;;;5057557;28;20024;-84
2023/04/28 09:05:08;;;;;;;16.63;7.65;;;14.40;92.80;;;;;;5075324;28;20035;-84
2023/04/28 09:07:34;;;;;;;12.60;8.50;;;14.40;92.80;;;;;;5072771;28;20033;-84
2023/04/28 09:10:23;;;;;;;19.13;9.23;;;14.40;93.10;;;;;;5073098;28;20028;-84
2023/04/28 09:12:54;;;;;;;11.38;8.02;;;14.50;93.10;;;;;;5064257;28;20032;-84
2023/04/28 09:15:26;;;;;;;14.95;8.75;;;14.50;93.20;;;;;;5073124;28;20039;-84
2023/04/28 09:17:52;;;;;;;12.32;8.20;;;14.50;93.30;;;;;;5073946;28;20028;-85
2023/04/28 09:20:24;;;;;;;14.45;8.57;;;14.60;93.40;;;;;;5073332;28;20044;-84
2023/04/28 09:22:51;;;;;;;13.85;8.35;;;14.60;93.40;;;;;;5074828;28;20370;-87
2023/04/28 09:25:20;;;;;;;12.70;7.70;;;14.60;93.50;;;;;;5056913;28;20044;-84
2023/04/28 09:27:45;;;;;;;15.45;9.30;;;14.60;93.90;;;;;;5073818;28;20059;-86
2023/04/28 09:30:12;;;;;;;14.88;9.77;;;14.60;93.80;;;;;;5073792;28;20029;-84
2023/04/28 09:32:37;;;;;;;11.07;8.27;;;14.60;93.70;;;;;;5074644;28;20051;-83
2023/04/28 09:35:03;;;;;;;12.45;8.35;;;14.60;93.60;;;;;;5072642;28;20492;-84
2023/04/28 09:37:30;;;;;;;13.20;8.02;;;14.60;93.70;;;;;;5072749;28;20025;-83
2023/04/28 09:40:03;;;;;;;19.50;8.70;;;14.60;93.70;;;;;;5074103;28;20052;-84
2023/04/28 09:42:33;;;;;;;11.70;7.97;;;14.60;93.80;;;;;;5072681;28;20025;-85
2023/04/28 09:45:02;;;;;;;14.02;8.02;;;14.70;93.90;;;;;;5074209;28;20028;-85
2023/04/28 09:47:31;;;;;;;13.10;8.65;;;14.70;93.90;;;;;;5073910;28;20103;-84
2023/04/28 09:49:59;;;;;;;13.90;8.95;;;14.70;93.90;;;;;;5074089;28;20104;-84
2023/04/28 09:52:25;;;;;;;12.95;7.70;;;14.70;93.90;;;;;;5073818;28;20025;-84
2023/04/28 09:54:53;;;;;;;10.52;7.78;;;14.60;93.90;;;;;;5071670;28;20070;-85
2023/04/28 09:57:21;;;;;;;16.42;10.55;;;14.70;94.10;;;;;;5073585;28;20032;-84
2023/04/28 09:59:51;;;;;;;11.88;9.13;;;14.70;94.30;;;;;;5071182;28;20538;-84
2023/04/28 10:02:19;;;;;;;12.38;9.13;;;14.60;94.30;;;;;;5074020;28;20017;-83
2023/04/28 10:04:46;;;;;;;14.05;9.85;;;14.60;94.40;;;;;;5070731;28;20017;-84
2023/04/28 10:07:13;;;;;;;13.20;9.38;;;14.60;94.40;;;;;;5072235;28;20028;-85
2023/04/28 10:09:43;;;;;;;12.95;9.43;;;14.60;94.50;;;;;;5070856;28;20593;-84
2023/04/28 10:12:10;;;;;;;11.10;9.18;;;14.60;94.70;;;;;;5070943;28;20035;-77
2023/04/28 10:14:36;;;;;;;16.73;9.73;;;14.60;94.80;;;;;;5073251;28;20017;-76
2023/04/28 10:17:05;;;;;;;15.63;10.32;;;14.70;95.00;;;;;;5073142;28;20017;-77
2023/04/28 10:19:32;;;;;;;13.15;10.25;;;14.70;95.10;;;;;;5073213;28;20477;-77
2023/04/28 10:22:33;;;;;;;14.75;9.50;;;14.70;95.30;;;;;;5073591;28;20020;-77
2023/04/28 10:25:13;;;;;;;18.65;11.02;;;14.70;95.40;;;;;;5072098;28;20052;-77
2023/04/28 10:27:42;;;;;;;14.73;11.05;;;14.80;95.80;;;;;;5072138;28;20532;-77
2023/04/28 10:30:13;;;;;;;15.18;11.15;;;14.80;95.90;;;;;;5070869;28;20032;-83
2023/04/28 10:32:40;;;;;;;15.57;11.00;;;14.80;96.10;;;;;;5072783;28;20380;-79
2023/04/28 10:35:24;;;;;;;14.25;11.00;;;14.80;96.40;;;;;;5071644;28;20029;-80
2023/04/28 10:38:07;;;;;;;15.82;10.75;;;14.80;96.80;;;;;;5086155;28;20025;-81
2023/04/28 10:40:33;;;;;;;15.02;10.80;;;14.80;97.10;;;;;;5070221;28;20020;-85
2023/04/28 10:42:59;;;;;;;15.20;12.20;;;14.90;97.30;;;;;;5054780;28;20369;-80
2023/04/28 10:45:53;;;;;;;16.02;12.35;;;14.80;97.50;;;;;;5054758;28;20030;-77
2023/04/28 10:48:20;;;;;;;14.70;11.53;;;14.90;97.70;;;;;;5071660;28;20020;-78
2023/04/28 10:51:04;;;;;;;11.43;9.52;;;14.80;98.10;;;;;;5068281;28;20286;-78
2023/04/28 10:53:46;;;;;;;14.18;11.23;;;14.90;98.00;;;;;;5068608;28;20390;-77
2023/04/28 10:56:15;;;;;;;13.43;10.75;;;14.80;98.40;;;;;;5068683;28;20031;-78
2023/04/28 10:58:44;;;;;;;12.70;9.00;;;14.80;98.40;;;;;;5072425;28;20021;-79
2023/04/28 11:01:33;;;;;;;14.23;11.18;;;14.90;98.80;;;;;;5071236;28;20028;-79
2023/04/28 11:04:09;;;;;;;11.35;8.48;;;14.90;99.50;;;;;;5087342;28;20016;-79
2023/04/28 11:06:38;;;;;;;10.25;7.47;;;14.90;99.60;;;;;;5070845;28;20028;-78
2023/04/28 11:09:13;;;;;;;12.65;9.10;;;14.90;99.90;;;;;;5071709;28;20029;-78
2023/04/28 11:12:02;;;;;;;9.85;7.70;;;14.90;99.90;;;;;;5071235;28;20036;-79
2023/04/28 11:14:28;;;;;;;12.20;8.27;;;14.90;99.90;;;;;;5087471;28;20392;-80
2023/04/28 11:17:01;;;;;;;8.65;6.93;;;14.90;99.90;;;;;;5071719;28;20040;-80
2023/04/28 11:19:50;;;;;;;10.82;7.60;;;14.90;99.90;;;;;;5073146;28;20021;-81
2023/04/28 11:22:21;;;;;;;9.80;7.60;;;15.00;99.90;;;;;;5072853;28;20025;-81
2023/04/28 11:24:58;;;;;;;9.68;6.18;;;15.00;99.90;;;;;;5072607;28;20044;-80
2023/04/28 11:27:29;;;;;;;8.70;6.40;;;15.10;99.90;;;;;;5073124;28;20036;-80
2023/04/28 11:29:54;;;;;;;9.73;6.95;;;15.00;99.90;;;;;;5072807;28;20112;-89
2023/04/28 11:32:34;;;;;;;11.18;7.90;;;15.00;99.90;;;;;;5074066;28;20056;-87
2023/04/28 11:35:00;;;;;;;11.48;8.13;;;14.90;99.90;;;;;;5055871;28;20444;-84
2023/04/28 11:37:26;;;;;;;12.35;9.00;;;14.90;99.90;;;;;;5073767;28;20025;-86
2023/04/28 11:39:53;;;;;;;13.57;9.95;;;14.90;99.90;;;;;;5072005;28;20063;-76
2023/04/28 11:42:19;;;;;;;11.38;8.95;;;14.90;99.90;;;;;;5072660;28;20481;-77
2023/04/28 11:44:52;;;;;;;14.65;11.50;;;14.80;99.90;;;;;;5071220;28;20025;-77
2023/04/28 11:47:33;;;;;;;13.32;9.75;;;14.80;99.90;;;;;;5072647;28;20579;-77
2023/04/28 11:50:00;;;;;;;13.25;9.80;;;14.90;99.90;;;;;;5071417;28;20036;-77
2023/04/28 11:52:26;;;;;;;14.88;11.45;;;15.00;99.90;;;;;;5071627;28;20484;-77
2023/04/28 11:55:01;;;;;;;13.57;10.25;;;15.30;99.90;;;;;;5071097;28;20032;-83
2023/04/28 11:57:27;;;;;;;16.27;11.15;;;15.40;99.90;;;;;;5054381;28;20093;-84
2023/04/28 11:59:53;;;;;;;14.00;10.98;;;15.50;99.90;;;;;;5073054;28;20047;-82
2023/04/28 12:02:29;;;;;;;17.00;12.35;;;15.50;99.90;;;;;;5071468;28;20111;-87
2023/04/28 12:04:55;;;;;;;17.25;12.10;;;15.50;99.90;;;;;;5055718;28;20032;-82
2023/04/28 12:07:21;;;;;;;15.02;11.43;;;15.50;99.90;;;;;;5070827;28;20051;-84
2023/04/28 12:10:10;;;;;;;17.40;13.18;;;15.50;99.90;;;;;;5072006;28;20370;-85
2023/04/28 12:12:35;;;;;;;17.00;12.93;;;15.40;99.90;;;;;;5067722;28;20037;-83
2023/04/28 12:15:05;;;;;;;16.92;12.23;;;15.40;99.90;;;;;;5069585;28;20036;-85
2023/04/28 12:17:32;;;;;;;16.25;11.45;;;15.20;99.90;;;;;;5065587;28;20024;-85
2023/04/28 12:20:00;;;;;;;17.40;12.88;;;15.20;99.90;;;;;;5072572;28;20021;-86
2023/04/28 12:22:26;;;;;;;15.13;11.40;;;15.20;99.90;;;;;;5073967;28;20043;-85
2023/04/28 12:25:03;;;;;;;16.33;12.32;;;15.20;99.90;;;;;;5074566;28;20044;-83
2023/04/28 12:27:30;;;;;;;15.73;12.27;;;15.10;99.90;;;;;;5070933;28;20511;-86
2023/04/28 12:29:57;;;;;;;16.83;12.40;;;15.10;99.90;;;;;;5075045;28;20020;-87
2023/04/28 12:32:43;;;;;;;15.70;11.15;;;15.10;99.90;;;;;;5074194;28;20031;-82
2023/04/28 12:35:09;;;;;;;17.70;11.20;;;15.00;99.90;;;;;;5075906;28;20123;-87
2023/04/28 12:37:37;;;;;;;16.50;12.25;;;15.00;99.90;;;;;;5076251;28;20071;-86
2023/04/28 12:40:03;;;;;;;17.10;12.18;;;15.00;99.90;;;;;;5077436;28;20025;-87